sensor_id;sensor_type;location;lat;lon;timestamp;temperature;humidity
18998;DHT22;9632;51.018;4.284;2022-10-31T00:01:34;15.90;99.90
18998;DHT22;9632;51.018;4.284;2022-10-31T00:04:00;15.90;99.90
18998;DHT22;9632;51.018;4.284;2022-10-31T00:06:26;15.90;99.90
18998;DHT22;9632;51.018;4.284;2022-10-31T00:08:57;15.90;99.90
18998;DHT22;9632;51.018;4.284;2022-10-31T00:11:23;15.90;99.90
18998;DHT22;9632;51.018;4.284;2022-10-31T00:13:49;15.90;99.90
18998;DHT22;9632;51.018;4.284;2022-10-31T00:16:22;15.90;99.90
18998;DHT22;9632;51.018;4.284;2022-10-31T00:18:52;15.80;99.90
18998;DHT22;9632;51.018;4.284;2022-10-31T00:21:19;15.80;99.90
18998;DHT22;9632;51.018;4.284;2022-10-31T00:23:45;15.90;99.90
18998;DHT22;9632;51.018;4.284;2022-10-31T00:26:10;15.80;99.90
18998;DHT22;9632;51.018;4.284;2022-10-31T00:28:36;15.80;99.90
18998;DHT22;9632;51.018;4.284;2022-10-31T00:31:04;15.80;99.90
18998;DHT22;9632;51.018;4.284;2022-10-31T00:33:32;15.80;99.90
18998;DHT22;9632;51.018;4.284;2022-10-31T00:35:58;15.70;99.90
18998;DHT22;9632;51.018;4.284;2022-10-31T00:38:24;15.70;99.90
18998;DHT22;9632;51.018;4.284;2022-10-31T00:40:49;15.70;99.90
18998;DHT22;9632;51.018;4.284;2022-10-31T00:43:15;15.60;99.90
18998;DHT22;9632;51.018;4.284;2022-10-31T00:45:41;15.70;99.90
18998;DHT22;9632;51.018;4.284;2022-10-31T00:48:08;15.60;99.90
18998;DHT22;9632;51.018;4.284;2022-10-31T00:50:33;15.60;99.90
18998;DHT22;9632;51.018;4.284;2022-10-31T00:52:59;15.60;99.90
18998;DHT22;9632;51.018;4.284;2022-10-31T00:55:25;15.50;99.90
18998;DHT22;9632;51.018;4.284;2022-10-31T00:57:50;15.50;99.90
18998;DHT22;9632;51.018;4.284;2022-10-31T01:00:16;15.50;99.90
18998;DHT22;9632;51.018;4.284;2022-10-31T01:02:42;15.40;99.90
18998;DHT22;9632;51.018;4.284;2022-10-31T01:05:08;15.40;99.90
18998;DHT22;9632;51.018;4.284;2022-10-31T01:07:38;15.40;99.90
18998;DHT22;9632;51.018;4.284;2022-10-31T01:10:05;15.30;99.90
18998;DHT22;9632;51.018;4.284;2022-10-31T01:12:36;15.30;99.90
18998;DHT22;9632;51.018;4.284;2022-10-31T01:15:02;15.30;99.90
18998;DHT22;9632;51.018;4.284;2022-10-31T01:17:27;15.30;99.90
18998;DHT22;9632;51.018;4.284;2022-10-31T01:19:53;15.20;99.90
18998;DHT22;9632;51.018;4.284;2022-10-31T01:22:19;15.20;99.90
18998;DHT22;9632;51.018;4.284;2022-10-31T01:24:44;15.20;99.90
18998;DHT22;9632;51.018;4.284;2022-10-31T01:27:10;15.10;99.90
18998;DHT22;9632;51.018;4.284;2022-10-31T01:29:35;15.10;99.90
18998;DHT22;9632;51.018;4.284;2022-10-31T01:32:01;15.10;99.90
18998;DHT22;9632;51.018;4.284;2022-10-31T01:34:27;15.10;99.90
18998;DHT22;9632;51.018;4.284;2022-10-31T01:36:52;15.00;99.90
18998;DHT22;9632;51.018;4.284;2022-10-31T01:39:18;15.00;99.90
18998;DHT22;9632;51.018;4.284;2022-10-31T01:41:48;14.90;99.90
18998;DHT22;9632;51.018;4.284;2022-10-31T01:46:44;14.90;99.90
18998;DHT22;9632;51.018;4.284;2022-10-31T01:49:21;14.80;99.90
18998;DHT22;9632;51.018;4.284;2022-10-31T01:51:57;14.80;99.90
18998;DHT22;9632;51.018;4.284;2022-10-31T01:54:27;14.80;99.90
18998;DHT22;9632;51.018;4.284;2022-10-31T01:56:56;14.70;99.90
18998;DHT22;9632;51.018;4.284;2022-10-31T01:59:25;14.70;99.90
18998;DHT22;9632;51.018;4.284;2022-10-31T02:01:52;14.70;99.90
18998;DHT22;9632;51.018;4.284;2022-10-31T02:04:19;14.60;99.90
18998;DHT22;9632;51.018;4.284;2022-10-31T02:06:53;14.60;99.90
18998;DHT22;9632;51.018;4.284;2022-10-31T02:09:21;14.60;99.90
18998;DHT22;9632;51.018;4.284;2022-10-31T02:11:53;14.60;99.90
18998;DHT22;9632;51.018;4.284;2022-10-31T02:14:22;14.50;99.90
18998;DHT22;9632;51.018;4.284;2022-10-31T02:16:48;14.50;99.90
18998;DHT22;9632;51.018;4.284;2022-10-31T02:22:05;14.40;99.90
18998;DHT22;9632;51.018;4.284;2022-10-31T02:24:40;14.40;99.90
18998;DHT22;9632;51.018;4.284;2022-10-31T02:27:36;14.40;99.90
18998;DHT22;9632;51.018;4.284;2022-10-31T02:30:21;14.40;99.90
18998;DHT22;9632;51.018;4.284;2022-10-31T02:38:02;14.30;99.90
18998;DHT22;9632;51.018;4.284;2022-10-31T02:40:49;14.20;99.90
18998;DHT22;9632;51.018;4.284;2022-10-31T02:43:32;14.20;99.90
18998;DHT22;9632;51.018;4.284;2022-10-31T02:46:14;14.10;99.90
18998;DHT22;9632;51.018;4.284;2022-10-31T02:48:45;14.10;99.90
18998;DHT22;9632;51.018;4.284;2022-10-31T02:51:13;14.10;99.90
18998;DHT22;9632;51.018;4.284;2022-10-31T02:53:39;14.10;99.90
18998;DHT22;9632;51.018;4.284;2022-10-31T02:56:19;14.10;99.90
18998;DHT22;9632;51.018;4.284;2022-10-31T02:58:49;14.10;99.90
18998;DHT22;9632;51.018;4.284;2022-10-31T03:10:27;13.80;99.90
18998;DHT22;9632;51.018;4.284;2022-10-31T03:15:26;13.70;99.90
18998;DHT22;9632;51.018;4.284;2022-10-31T03:18:00;13.70;99.90
18998;DHT22;9632;51.018;4.284;2022-10-31T03:20:41;13.70;99.90
18998;DHT22;9632;51.018;4.284;2022-10-31T03:23:12;13.60;99.90
18998;DHT22;9632;51.018;4.284;2022-10-31T03:25:39;13.60;99.90
18998;DHT22;9632;51.018;4.284;2022-10-31T03:28:06;13.60;99.90
18998;DHT22;9632;51.018;4.284;2022-10-31T03:30:35;13.50;99.90
18998;DHT22;9632;51.018;4.284;2022-10-31T03:33:03;13.50;99.90
18998;DHT22;9632;51.018;4.284;2022-10-31T03:35:33;13.50;99.90
18998;DHT22;9632;51.018;4.284;2022-10-31T03:38:00;13.50;99.90
18998;DHT22;9632;51.018;4.284;2022-10-31T03:40:27;13.40;99.90
18998;DHT22;9632;51.018;4.284;2022-10-31T03:42:59;13.40;99.90
18998;DHT22;9632;51.018;4.284;2022-10-31T03:45:30;13.40;99.90
18998;DHT22;9632;51.018;4.284;2022-10-31T03:47:58;13.30;99.90
18998;DHT22;9632;51.018;4.284;2022-10-31T03:50:29;13.30;99.90
18998;DHT22;9632;51.018;4.284;2022-10-31T03:56:34;13.30;99.90
18998;DHT22;9632;51.018;4.284;2022-10-31T03:59:14;13.30;99.90
18998;DHT22;9632;51.018;4.284;2022-10-31T04:01:46;13.20;99.90
18998;DHT22;9632;51.018;4.284;2022-10-31T04:04:13;13.20;99.90
18998;DHT22;9632;51.018;4.284;2022-10-31T04:06:41;13.20;99.90
18998;DHT22;9632;51.018;4.284;2022-10-31T04:09:08;13.10;99.90
18998;DHT22;9632;51.018;4.284;2022-10-31T04:11:38;13.10;99.90
18998;DHT22;9632;51.018;4.284;2022-10-31T04:14:06;13.00;99.90
18998;DHT22;9632;51.018;4.284;2022-10-31T04:16:32;13.10;99.90
18998;DHT22;9632;51.018;4.284;2022-10-31T04:18:58;13.00;99.90
18998;DHT22;9632;51.018;4.284;2022-10-31T04:21:28;13.00;99.90
18998;DHT22;9632;51.018;4.284;2022-10-31T04:23:54;12.90;99.90
18998;DHT22;9632;51.018;4.284;2022-10-31T04:26:20;12.90;99.90
18998;DHT22;9632;51.018;4.284;2022-10-31T04:28:45;12.90;99.90
18998;DHT22;9632;51.018;4.284;2022-10-31T04:31:12;12.90;99.90
18998;DHT22;9632;51.018;4.284;2022-10-31T04:33:37;12.90;99.90
18998;DHT22;9632;51.018;4.284;2022-10-31T04:36:03;12.90;99.90
18998;DHT22;9632;51.018;4.284;2022-10-31T04:38:30;12.80;99.90
18998;DHT22;9632;51.018;4.284;2022-10-31T04:40:55;12.80;99.90
18998;DHT22;9632;51.018;4.284;2022-10-31T04:43:21;12.80;99.90
18998;DHT22;9632;51.018;4.284;2022-10-31T04:45:47;12.70;99.90
18998;DHT22;9632;51.018;4.284;2022-10-31T04:48:12;12.80;99.90
18998;DHT22;9632;51.018;4.284;2022-10-31T04:50:38;12.70;99.90
18998;DHT22;9632;51.018;4.284;2022-10-31T04:53:03;12.70;99.90
18998;DHT22;9632;51.018;4.284;2022-10-31T04:55:29;12.70;99.90
18998;DHT22;9632;51.018;4.284;2022-10-31T04:57:55;12.70;99.90
18998;DHT22;9632;51.018;4.284;2022-10-31T05:00:22;12.70;99.90
18998;DHT22;9632;51.018;4.284;2022-10-31T05:02:56;12.60;99.90
18998;DHT22;9632;51.018;4.284;2022-10-31T05:05:24;12.60;99.90
18998;DHT22;9632;51.018;4.284;2022-10-31T05:07:50;12.60;99.90
18998;DHT22;9632;51.018;4.284;2022-10-31T05:10:23;12.60;99.90
18998;DHT22;9632;51.018;4.284;2022-10-31T05:12:56;12.70;99.90
18998;DHT22;9632;51.018;4.284;2022-10-31T05:15:24;12.70;99.90
18998;DHT22;9632;51.018;4.284;2022-10-31T05:17:51;12.70;99.90
18998;DHT22;9632;51.018;4.284;2022-10-31T05:20:18;12.70;99.90
18998;DHT22;9632;51.018;4.284;2022-10-31T05:22:46;12.70;99.90
18998;DHT22;9632;51.018;4.284;2022-10-31T05:25:12;12.70;99.90
18998;DHT22;9632;51.018;4.284;2022-10-31T05:27:42;12.70;99.90
18998;DHT22;9632;51.018;4.284;2022-10-31T05:30:10;12.80;99.90
18998;DHT22;9632;51.018;4.284;2022-10-31T05:32:40;12.70;99.90
18998;DHT22;9632;51.018;4.284;2022-10-31T05:35:07;12.80;99.90
18998;DHT22;9632;51.018;4.284;2022-10-31T05:37:37;12.80;99.90
18998;DHT22;9632;51.018;4.284;2022-10-31T05:40:04;12.80;99.90
18998;DHT22;9632;51.018;4.284;2022-10-31T05:42:30;12.80;99.90
18998;DHT22;9632;51.018;4.284;2022-10-31T05:44:56;12.80;99.90
18998;DHT22;9632;51.018;4.284;2022-10-31T05:47:22;12.80;99.90
18998;DHT22;9632;51.018;4.284;2022-10-31T05:49:47;12.80;99.90
18998;DHT22;9632;51.018;4.284;2022-10-31T05:52:13;12.90;99.90
18998;DHT22;9632;51.018;4.284;2022-10-31T05:54:39;12.90;99.90
18998;DHT22;9632;51.018;4.284;2022-10-31T05:57:05;12.90;99.90
18998;DHT22;9632;51.018;4.284;2022-10-31T05:59:30;12.90;99.90
18998;DHT22;9632;51.018;4.284;2022-10-31T06:01:56;12.90;99.90
18998;DHT22;9632;51.018;4.284;2022-10-31T06:04:22;12.90;99.90
18998;DHT22;9632;51.018;4.284;2022-10-31T06:06:47;12.90;99.90
18998;DHT22;9632;51.018;4.284;2022-10-31T06:09:13;13.00;99.90
18998;DHT22;9632;51.018;4.284;2022-10-31T06:11:38;13.00;99.90
18998;DHT22;9632;51.018;4.284;2022-10-31T06:14:05;13.00;99.90
18998;DHT22;9632;51.018;4.284;2022-10-31T06:16:31;13.00;99.90
18998;DHT22;9632;51.018;4.284;2022-10-31T06:18:57;13.00;99.90
18998;DHT22;9632;51.018;4.284;2022-10-31T06:21:22;13.10;99.90
18998;DHT22;9632;51.018;4.284;2022-10-31T06:23:48;13.10;99.90
18998;DHT22;9632;51.018;4.284;2022-10-31T06:26:14;13.10;99.90
18998;DHT22;9632;51.018;4.284;2022-10-31T06:28:39;13.10;99.90
18998;DHT22;9632;51.018;4.284;2022-10-31T06:31:05;13.10;99.90
18998;DHT22;9632;51.018;4.284;2022-10-31T06:33:31;13.20;99.90
18998;DHT22;9632;51.018;4.284;2022-10-31T06:35:57;13.20;99.90
18998;DHT22;9632;51.018;4.284;2022-10-31T06:38:22;13.20;99.90
18998;DHT22;9632;51.018;4.284;2022-10-31T06:40:48;13.20;99.90
18998;DHT22;9632;51.018;4.284;2022-10-31T06:43:13;13.20;99.90
18998;DHT22;9632;51.018;4.284;2022-10-31T06:45:40;13.30;99.90
18998;DHT22;9632;51.018;4.284;2022-10-31T06:48:06;13.30;99.90
18998;DHT22;9632;51.018;4.284;2022-10-31T06:50:31;13.30;99.90
18998;DHT22;9632;51.018;4.284;2022-10-31T06:52:58;13.30;99.90
18998;DHT22;9632;51.018;4.284;2022-10-31T06:55:25;13.30;99.90
18998;DHT22;9632;51.018;4.284;2022-10-31T06:57:58;13.30;99.90
18998;DHT22;9632;51.018;4.284;2022-10-31T07:00:26;13.30;99.90
18998;DHT22;9632;51.018;4.284;2022-10-31T07:03:03;13.40;99.90
18998;DHT22;9632;51.018;4.284;2022-10-31T07:05:29;13.30;99.90
18998;DHT22;9632;51.018;4.284;2022-10-31T07:08:00;13.40;99.90
18998;DHT22;9632;51.018;4.284;2022-10-31T07:10:28;13.40;99.90
18998;DHT22;9632;51.018;4.284;2022-10-31T07:12:58;13.40;99.90
18998;DHT22;9632;51.018;4.284;2022-10-31T07:15:25;13.50;99.90
18998;DHT22;9632;51.018;4.284;2022-10-31T07:17:51;13.50;99.90
18998;DHT22;9632;51.018;4.284;2022-10-31T07:20:17;13.50;99.90
18998;DHT22;9632;51.018;4.284;2022-10-31T07:22:43;13.50;99.90
18998;DHT22;9632;51.018;4.284;2022-10-31T07:25:09;13.60;99.90
18998;DHT22;9632;51.018;4.284;2022-10-31T07:27:39;13.60;99.90
18998;DHT22;9632;51.018;4.284;2022-10-31T07:30:10;13.60;99.90
18998;DHT22;9632;51.018;4.284;2022-10-31T07:32:43;13.70;99.90
18998;DHT22;9632;51.018;4.284;2022-10-31T07:35:12;13.70;99.90
18998;DHT22;9632;51.018;4.284;2022-10-31T07:37:38;13.70;99.90
18998;DHT22;9632;51.018;4.284;2022-10-31T07:40:05;13.80;99.90
18998;DHT22;9632;51.018;4.284;2022-10-31T07:42:38;13.80;99.90
18998;DHT22;9632;51.018;4.284;2022-10-31T07:45:05;13.80;99.90
18998;DHT22;9632;51.018;4.284;2022-10-31T07:47:48;13.90;99.90
18998;DHT22;9632;51.018;4.284;2022-10-31T07:50:16;13.90;99.90
18998;DHT22;9632;51.018;4.284;2022-10-31T07:52:42;13.90;99.90
18998;DHT22;9632;51.018;4.284;2022-10-31T07:55:08;14.00;99.90
18998;DHT22;9632;51.018;4.284;2022-10-31T07:57:34;14.10;99.90
18998;DHT22;9632;51.018;4.284;2022-10-31T08:00:03;14.10;99.90
18998;DHT22;9632;51.018;4.284;2022-10-31T08:02:29;14.20;99.90
18998;DHT22;9632;51.018;4.284;2022-10-31T08:04:54;14.20;99.90
18998;DHT22;9632;51.018;4.284;2022-10-31T08:07:20;14.30;99.90
18998;DHT22;9632;51.018;4.284;2022-10-31T08:09:46;14.40;99.90
18998;DHT22;9632;51.018;4.284;2022-10-31T08:12:11;14.40;99.90
18998;DHT22;9632;51.018;4.284;2022-10-31T08:14:37;14.40;99.90
18998;DHT22;9632;51.018;4.284;2022-10-31T08:17:02;14.40;99.90
18998;DHT22;9632;51.018;4.284;2022-10-31T08:19:28;14.40;99.90
18998;DHT22;9632;51.018;4.284;2022-10-31T08:21:53;14.40;99.90
18998;DHT22;9632;51.018;4.284;2022-10-31T08:24:21;14.40;99.90
18998;DHT22;9632;51.018;4.284;2022-10-31T08:26:46;14.50;99.90
18998;DHT22;9632;51.018;4.284;2022-10-31T08:29:12;14.60;99.90
18998;DHT22;9632;51.018;4.284;2022-10-31T08:31:38;14.70;99.90
18998;DHT22;9632;51.018;4.284;2022-10-31T08:34:04;14.70;99.90
18998;DHT22;9632;51.018;4.284;2022-10-31T08:36:29;14.70;99.90
18998;DHT22;9632;51.018;4.284;2022-10-31T08:38:55;14.80;99.90
18998;DHT22;9632;51.018;4.284;2022-10-31T08:41:21;14.90;99.90
18998;DHT22;9632;51.018;4.284;2022-10-31T08:43:47;14.90;99.90
18998;DHT22;9632;51.018;4.284;2022-10-31T08:46:12;15.00;99.90
18998;DHT22;9632;51.018;4.284;2022-10-31T08:48:38;15.00;99.90
18998;DHT22;9632;51.018;4.284;2022-10-31T08:51:04;15.00;99.90
18998;DHT22;9632;51.018;4.284;2022-10-31T08:53:30;15.10;99.90
18998;DHT22;9632;51.018;4.284;2022-10-31T08:55:56;15.10;99.90
18998;DHT22;9632;51.018;4.284;2022-10-31T08:58:23;15.20;99.90
18998;DHT22;9632;51.018;4.284;2022-10-31T09:00:50;15.20;99.90
18998;DHT22;9632;51.018;4.284;2022-10-31T09:03:30;15.30;99.90
18998;DHT22;9632;51.018;4.284;2022-10-31T09:05:59;15.40;99.90
18998;DHT22;9632;51.018;4.284;2022-10-31T09:08:25;15.40;99.90
18998;DHT22;9632;51.018;4.284;2022-10-31T09:10:51;15.40;99.90
18998;DHT22;9632;51.018;4.284;2022-10-31T09:13:19;15.50;99.90
18998;DHT22;9632;51.018;4.284;2022-10-31T09:15:46;15.50;99.90
18998;DHT22;9632;51.018;4.284;2022-10-31T09:18:14;15.40;99.90
18998;DHT22;9632;51.018;4.284;2022-10-31T09:20:41;15.50;99.90
18998;DHT22;9632;51.018;4.284;2022-10-31T09:23:10;15.50;99.90
18998;DHT22;9632;51.018;4.284;2022-10-31T09:25:37;15.60;99.90
18998;DHT22;9632;51.018;4.284;2022-10-31T09:28:04;15.60;99.90
18998;DHT22;9632;51.018;4.284;2022-10-31T09:30:32;15.60;99.90
18998;DHT22;9632;51.018;4.284;2022-10-31T09:32:59;15.70;99.90
18998;DHT22;9632;51.018;4.284;2022-10-31T09:35:26;15.70;99.90
18998;DHT22;9632;51.018;4.284;2022-10-31T09:38:06;15.70;99.90
18998;DHT22;9632;51.018;4.284;2022-10-31T09:43:29;15.80;99.90
18998;DHT22;9632;51.018;4.284;2022-10-31T09:51:30;15.80;99.90
18998;DHT22;9632;51.018;4.284;2022-10-31T09:56:32;15.80;99.90
18998;DHT22;9632;51.018;4.284;2022-10-31T09:59:00;15.80;99.90
18998;DHT22;9632;51.018;4.284;2022-10-31T10:03:55;15.80;99.90
18998;DHT22;9632;51.018;4.284;2022-10-31T10:06:28;15.90;99.90
18998;DHT22;9632;51.018;4.284;2022-10-31T10:08:55;15.90;99.90
18998;DHT22;9632;51.018;4.284;2022-10-31T10:14:23;16.10;99.90
18998;DHT22;9632;51.018;4.284;2022-10-31T10:22:52;16.20;99.90
18998;DHT22;9632;51.018;4.284;2022-10-31T10:25:24;16.20;99.90
18998;DHT22;9632;51.018;4.284;2022-10-31T10:28:10;16.30;99.90
18998;DHT22;9632;51.018;4.284;2022-10-31T10:30:46;16.30;99.90
18998;DHT22;9632;51.018;4.284;2022-10-31T10:33:16;16.40;99.90
18998;DHT22;9632;51.018;4.284;2022-10-31T10:35:53;16.30;99.90
18998;DHT22;9632;51.018;4.284;2022-10-31T10:38:34;16.30;99.90
18998;DHT22;9632;51.018;4.284;2022-10-31T10:41:05;16.40;99.90
18998;DHT22;9632;51.018;4.284;2022-10-31T10:43:38;16.40;99.90
18998;DHT22;9632;51.018;4.284;2022-10-31T10:51:58;16.50;99.90
18998;DHT22;9632;51.018;4.284;2022-10-31T10:54:46;16.50;99.90
18998;DHT22;9632;51.018;4.284;2022-10-31T11:02:43;16.60;99.90
18998;DHT22;9632;51.018;4.284;2022-10-31T11:05:20;16.60;99.90
18998;DHT22;9632;51.018;4.284;2022-10-31T11:07:47;16.70;99.90
18998;DHT22;9632;51.018;4.284;2022-10-31T11:10:14;16.60;99.90
18998;DHT22;9632;51.018;4.284;2022-10-31T11:12:42;16.60;99.90
18998;DHT22;9632;51.018;4.284;2022-10-31T11:15:21;16.70;99.90
18998;DHT22;9632;51.018;4.284;2022-10-31T11:17:49;16.70;99.90
18998;DHT22;9632;51.018;4.284;2022-10-31T11:22:46;16.70;99.90
18998;DHT22;9632;51.018;4.284;2022-10-31T11:25:25;16.70;99.90
18998;DHT22;9632;51.018;4.284;2022-10-31T11:28:05;16.80;99.90
18998;DHT22;9632;51.018;4.284;2022-10-31T11:31:05;16.80;99.90
18998;DHT22;9632;51.018;4.284;2022-10-31T11:33:32;16.80;99.90
18998;DHT22;9632;51.018;4.284;2022-10-31T11:36:01;16.80;99.90
18998;DHT22;9632;51.018;4.284;2022-10-31T11:38:39;16.80;99.90
18998;DHT22;9632;51.018;4.284;2022-10-31T11:41:09;16.80;99.90
18998;DHT22;9632;51.018;4.284;2022-10-31T11:43:36;16.80;99.90
18998;DHT22;9632;51.018;4.284;2022-10-31T11:46:18;16.90;99.90
18998;DHT22;9632;51.018;4.284;2022-10-31T11:48:49;16.90;99.90
18998;DHT22;9632;51.018;4.284;2022-10-31T11:51:33;16.90;99.90
18998;DHT22;9632;51.018;4.284;2022-10-31T11:54:02;17.00;99.90
18998;DHT22;9632;51.018;4.284;2022-10-31T11:56:42;17.10;99.90
18998;DHT22;9632;51.018;4.284;2022-10-31T11:59:28;17.10;99.90
18998;DHT22;9632;51.018;4.284;2022-10-31T12:01:56;17.10;99.90
18998;DHT22;9632;51.018;4.284;2022-10-31T12:04:39;17.30;99.90
18998;DHT22;9632;51.018;4.284;2022-10-31T12:07:07;17.30;99.90
18998;DHT22;9632;51.018;4.284;2022-10-31T12:09:35;17.40;99.90
18998;DHT22;9632;51.018;4.284;2022-10-31T12:12:38;17.50;99.90
18998;DHT22;9632;51.018;4.284;2022-10-31T12:18:32;17.60;99.90
18998;DHT22;9632;51.018;4.284;2022-10-31T12:43:06;18.00;99.90
18998;DHT22;9632;51.018;4.284;2022-10-31T13:01:21;18.60;99.90
18998;DHT22;9632;51.018;4.284;2022-10-31T13:04:14;18.60;99.90
18998;DHT22;9632;51.018;4.284;2022-10-31T13:06:50;18.70;99.90
18998;DHT22;9632;51.018;4.284;2022-10-31T13:09:33;18.80;99.90
18998;DHT22;9632;51.018;4.284;2022-10-31T13:12:09;18.80;99.90
18998;DHT22;9632;51.018;4.284;2022-10-31T13:14:57;18.80;99.90
18998;DHT22;9632;51.018;4.284;2022-10-31T13:17:41;18.80;99.90
18998;DHT22;9632;51.018;4.284;2022-10-31T13:20:19;18.90;99.90
18998;DHT22;9632;51.018;4.284;2022-10-31T13:22:49;18.80;99.90
18998;DHT22;9632;51.018;4.284;2022-10-31T13:30:24;19.10;99.90
18998;DHT22;9632;51.018;4.284;2022-10-31T13:33:05;19.10;99.90
18998;DHT22;9632;51.018;4.284;2022-10-31T13:35:52;19.10;99.90
18998;DHT22;9632;51.018;4.284;2022-10-31T13:38:51;19.20;99.90
18998;DHT22;9632;51.018;4.284;2022-10-31T13:46:44;19.30;99.90
18998;DHT22;9632;51.018;4.284;2022-10-31T13:54:41;19.30;99.90
18998;DHT22;9632;51.018;4.284;2022-10-31T13:57:17;19.30;99.90
18998;DHT22;9632;51.018;4.284;2022-10-31T13:59:53;19.30;99.90
18998;DHT22;9632;51.018;4.284;2022-10-31T14:02:28;19.30;99.90
18998;DHT22;9632;51.018;4.284;2022-10-31T14:05:00;19.30;99.90
18998;DHT22;9632;51.018;4.284;2022-10-31T14:07:27;19.30;99.90
18998;DHT22;9632;51.018;4.284;2022-10-31T14:10:06;19.40;99.90
18998;DHT22;9632;51.018;4.284;2022-10-31T14:12:44;19.40;99.90
18998;DHT22;9632;51.018;4.284;2022-10-31T14:15:42;19.40;99.90
18998;DHT22;9632;51.018;4.284;2022-10-31T14:18:24;19.40;99.90
18998;DHT22;9632;51.018;4.284;2022-10-31T14:20:50;19.40;99.90
18998;DHT22;9632;51.018;4.284;2022-10-31T14:25:54;19.40;99.90
18998;DHT22;9632;51.018;4.284;2022-10-31T14:28:32;19.40;99.90
18998;DHT22;9632;51.018;4.284;2022-10-31T14:30:59;19.40;99.90
18998;DHT22;9632;51.018;4.284;2022-10-31T14:33:27;19.50;99.90
18998;DHT22;9632;51.018;4.284;2022-10-31T14:36:02;19.50;99.90
18998;DHT22;9632;51.018;4.284;2022-10-31T14:51:48;19.40;99.90
18998;DHT22;9632;51.018;4.284;2022-10-31T14:54:30;19.30;99.90
18998;DHT22;9632;51.018;4.284;2022-10-31T14:57:04;19.40;99.90
18998;DHT22;9632;51.018;4.284;2022-10-31T14:59:35;19.50;99.90
18998;DHT22;9632;51.018;4.284;2022-10-31T15:02:14;19.40;99.90
18998;DHT22;9632;51.018;4.284;2022-10-31T15:04:42;19.50;99.90
18998;DHT22;9632;51.018;4.284;2022-10-31T15:07:17;19.40;99.90
18998;DHT22;9632;51.018;4.284;2022-10-31T15:09:44;19.40;99.90
18998;DHT22;9632;51.018;4.284;2022-10-31T15:12:39;19.40;99.90
18998;DHT22;9632;51.018;4.284;2022-10-31T15:15:21;19.40;99.90
18998;DHT22;9632;51.018;4.284;2022-10-31T15:17:58;19.40;99.90
18998;DHT22;9632;51.018;4.284;2022-10-31T15:20:37;19.50;99.90
18998;DHT22;9632;51.018;4.284;2022-10-31T15:23:11;19.40;99.90
18998;DHT22;9632;51.018;4.284;2022-10-31T15:25:39;19.40;99.90
18998;DHT22;9632;51.018;4.284;2022-10-31T15:28:14;19.40;99.90
18998;DHT22;9632;51.018;4.284;2022-10-31T15:30:40;19.40;99.90
18998;DHT22;9632;51.018;4.284;2022-10-31T15:33:23;19.50;99.90
18998;DHT22;9632;51.018;4.284;2022-10-31T15:36:00;19.40;99.90
18998;DHT22;9632;51.018;4.284;2022-10-31T15:38:27;19.40;99.90
18998;DHT22;9632;51.018;4.284;2022-10-31T15:41:06;19.30;99.90
18998;DHT22;9632;51.018;4.284;2022-10-31T15:43:44;19.30;99.90
18998;DHT22;9632;51.018;4.284;2022-10-31T15:46:10;19.30;99.90
18998;DHT22;9632;51.018;4.284;2022-10-31T15:48:36;19.20;99.90
18998;DHT22;9632;51.018;4.284;2022-10-31T15:51:03;19.10;99.90
18998;DHT22;9632;51.018;4.284;2022-10-31T15:53:43;19.10;99.90
18998;DHT22;9632;51.018;4.284;2022-10-31T15:56:13;19.10;99.90
18998;DHT22;9632;51.018;4.284;2022-10-31T15:58:46;19.00;99.90
18998;DHT22;9632;51.018;4.284;2022-10-31T16:01:27;19.00;99.90
18998;DHT22;9632;51.018;4.284;2022-10-31T16:06:30;18.90;99.90
18998;DHT22;9632;51.018;4.284;2022-10-31T16:08:56;18.90;99.90
18998;DHT22;9632;51.018;4.284;2022-10-31T16:11:35;18.90;99.90
18998;DHT22;9632;51.018;4.284;2022-10-31T16:14:18;18.80;99.90
18998;DHT22;9632;51.018;4.284;2022-10-31T16:16:50;18.80;99.90
18998;DHT22;9632;51.018;4.284;2022-10-31T16:19:35;18.80;99.90
18998;DHT22;9632;51.018;4.284;2022-10-31T16:22:13;18.80;99.90
18998;DHT22;9632;51.018;4.284;2022-10-31T16:24:55;18.80;99.90
18998;DHT22;9632;51.018;4.284;2022-10-31T16:27:25;18.70;99.90
18998;DHT22;9632;51.018;4.284;2022-10-31T16:29:55;18.50;99.90
18998;DHT22;9632;51.018;4.284;2022-10-31T16:32:53;18.50;99.90
18998;DHT22;9632;51.018;4.284;2022-10-31T16:35:23;18.40;99.90
18998;DHT22;9632;51.018;4.284;2022-10-31T16:37:50;18.40;99.90
18998;DHT22;9632;51.018;4.284;2022-10-31T16:40:15;18.40;99.90
18998;DHT22;9632;51.018;4.284;2022-10-31T16:42:42;18.30;99.90
18998;DHT22;9632;51.018;4.284;2022-10-31T16:45:15;18.30;99.90
18998;DHT22;9632;51.018;4.284;2022-10-31T16:47:42;18.20;99.90
18998;DHT22;9632;51.018;4.284;2022-10-31T16:50:34;18.20;99.90
18998;DHT22;9632;51.018;4.284;2022-10-31T16:52:59;18.10;99.90
18998;DHT22;9632;51.018;4.284;2022-10-31T16:55:25;18.10;99.90
18998;DHT22;9632;51.018;4.284;2022-10-31T16:57:52;18.10;99.90
18998;DHT22;9632;51.018;4.284;2022-10-31T17:00:21;18.00;99.90
18998;DHT22;9632;51.018;4.284;2022-10-31T17:02:50;18.00;99.90
18998;DHT22;9632;51.018;4.284;2022-10-31T17:05:17;18.00;99.90
18998;DHT22;9632;51.018;4.284;2022-10-31T17:07:43;18.00;99.90
18998;DHT22;9632;51.018;4.284;2022-10-31T17:10:10;17.90;99.90
18998;DHT22;9632;51.018;4.284;2022-10-31T17:12:37;17.80;99.90
18998;DHT22;9632;51.018;4.284;2022-10-31T17:15:05;17.80;99.90
18998;DHT22;9632;51.018;4.284;2022-10-31T17:17:31;17.80;99.90
18998;DHT22;9632;51.018;4.284;2022-10-31T17:19:57;17.80;99.90
18998;DHT22;9632;51.018;4.284;2022-10-31T17:22:22;17.70;99.90
18998;DHT22;9632;51.018;4.284;2022-10-31T17:24:48;17.60;99.90
18998;DHT22;9632;51.018;4.284;2022-10-31T17:27:14;17.60;99.90
18998;DHT22;9632;51.018;4.284;2022-10-31T17:29:39;17.50;99.90
18998;DHT22;9632;51.018;4.284;2022-10-31T17:32:05;17.40;99.90
18998;DHT22;9632;51.018;4.284;2022-10-31T17:34:31;17.40;99.90
18998;DHT22;9632;51.018;4.284;2022-10-31T17:36:56;17.40;99.90
18998;DHT22;9632;51.018;4.284;2022-10-31T17:39:22;17.40;99.90
18998;DHT22;9632;51.018;4.284;2022-10-31T17:41:51;17.30;99.90
18998;DHT22;9632;51.018;4.284;2022-10-31T17:44:17;17.30;99.90
18998;DHT22;9632;51.018;4.284;2022-10-31T17:46:43;17.30;99.90
18998;DHT22;9632;51.018;4.284;2022-10-31T17:49:10;17.30;99.90
18998;DHT22;9632;51.018;4.284;2022-10-31T17:51:36;17.20;99.90
18998;DHT22;9632;51.018;4.284;2022-10-31T17:54:02;17.20;99.90
18998;DHT22;9632;51.018;4.284;2022-10-31T17:56:30;17.20;99.90
18998;DHT22;9632;51.018;4.284;2022-10-31T17:58:55;17.20;99.90
18998;DHT22;9632;51.018;4.284;2022-10-31T18:01:22;17.10;99.90
18998;DHT22;9632;51.018;4.284;2022-10-31T18:03:48;17.10;99.90
18998;DHT22;9632;51.018;4.284;2022-10-31T18:06:14;17.10;99.90
18998;DHT22;9632;51.018;4.284;2022-10-31T18:08:41;17.10;99.90
18998;DHT22;9632;51.018;4.284;2022-10-31T18:11:10;17.10;99.90
18998;DHT22;9632;51.018;4.284;2022-10-31T18:13:36;17.10;99.90
18998;DHT22;9632;51.018;4.284;2022-10-31T18:16:18;17.10;99.90
18998;DHT22;9632;51.018;4.284;2022-10-31T18:18:43;17.10;99.90
18998;DHT22;9632;51.018;4.284;2022-10-31T18:21:09;17.10;99.90